Time;durP1;ratioP1;P1;durP2;ratioP2;P2;SDS_P1;SDS_P2;PMS_P1;PMS_P2;Temp;Humidity;BMP_temperature;BMP_pressure;BME280_temperature;BME280_humidity;BME280_pressure;Samples;Min_cycle;Max_cycle;Signal;HPM_P1;HPM_P2
2023/05/01 00:00:03;;;;;;;3.97;1.83;;;10.40;99.90;;;;;;5072033;28;20451;-76
2023/05/01 00:02:29;;;;;;;5.13;1.40;;;10.40;99.90;;;;;;5071227;28;20024;-76
2023/05/01 00:04:55;;;;;;;3.95;1.70;;;10.50;99.90;;;;;;5055049;28;20480;-76
2023/05/01 00:07:21;;;;;;;4.18;1.80;;;10.50;99.90;;;;;;5071048;28;20388;-76
2023/05/01 00:09:46;;;;;;;6.35;2.00;;;10.50;99.90;;;;;;5070706;28;20021;-76
2023/05/01 00:12:12;;;;;;;3.78;1.67;;;10.50;99.90;;;;;;5071204;28;20025;-76
2023/05/01 00:14:40;;;;;;;6.68;1.65;;;10.50;99.90;;;;;;5071432;28;20071;-75
2023/05/01 00:17:06;;;;;;;5.03;1.45;;;10.50;99.90;;;;;;5063980;28;20087;-76
2023/05/01 00:19:31;;;;;;;5.15;1.77;;;10.60;99.90;;;;;;5033264;28;20032;-75
2023/05/01 00:21:57;;;;;;;4.22;1.40;;;10.60;99.90;;;;;;5051535;28;20489;-76
2023/05/01 00:24:23;;;;;;;5.32;1.27;;;10.60;99.90;;;;;;5051223;28;20117;-76
2023/05/01 00:26:48;;;;;;;5.40;1.65;;;10.60;99.90;;;;;;5057019;28;20035;-76
2023/05/01 00:29:14;;;;;;;5.78;1.40;;;10.70;99.90;;;;;;5071096;28;20476;-76
2023/05/01 00:31:41;;;;;;;3.33;1.10;;;10.70;99.90;;;;;;5071343;28;20036;-75
2023/05/01 00:34:07;;;;;;;5.50;1.73;;;10.70;99.90;;;;;;5071427;28;20029;-76
2023/05/01 00:36:32;;;;;;;4.85;1.83;;;10.60;99.90;;;;;;5071288;28;20095;-76
2023/05/01 00:38:58;;;;;;;6.03;1.52;;;10.50;99.90;;;;;;5071419;28;20027;-76
2023/05/01 00:41:23;;;;;;;5.32;2.17;;;10.50;99.90;;;;;;5070937;28;20032;-76
2023/05/01 00:43:49;;;;;;;3.63;1.83;;;10.40;99.90;;;;;;5073957;28;20035;-76
2023/05/01 00:46:14;;;;;;;7.10;2.03;;;10.40;99.90;;;;;;5055173;28;20035;-76
2023/05/01 00:48:40;;;;;;;4.45;1.67;;;10.30;99.90;;;;;;5065538;28;20021;-75
2023/05/01 00:51:07;;;;;;;5.18;2.35;;;10.30;99.90;;;;;;5075237;28;20099;-76
2023/05/01 00:53:33;;;;;;;7.13;2.70;;;10.20;99.90;;;;;;5075174;28;20029;-75
2023/05/01 00:55:59;;;;;;;10.10;2.45;;;10.20;99.90;;;;;;5057351;28;20021;-76
2023/05/01 00:58:25;;;;;;;5.47;2.40;;;10.20;99.90;;;;;;5074687;28;20017;-76
2023/05/01 01:00:51;;;;;;;5.60;2.30;;;10.20;99.90;;;;;;5074743;28;20029;-76
2023/05/01 01:03:17;;;;;;;5.93;1.85;;;10.10;99.90;;;;;;5074490;28;20033;-75
2023/05/01 01:05:53;;;;;;;4.78;2.38;;;10.20;99.90;;;;;;5066411;28;20148;-75
2023/05/01 01:08:25;;;;;;;5.30;2.10;;;10.10;99.90;;;;;;5054613;28;20021;-75
2023/05/01 01:11:02;;;;;;;6.10;2.15;;;10.20;99.90;;;;;;5054929;28;20060;-76
2023/05/01 01:13:53;;;;;;;5.15;2.38;;;10.20;99.90;;;;;;5066527;28;20040;-77
2023/05/01 01:16:47;;;;;;;6.15;2.40;;;10.20;99.90;;;;;;5074186;28;20067;-76
2023/05/01 01:19:41;;;;;;;4.05;2.17;;;10.10;99.90;;;;;;5074303;28;20064;-76
2023/05/01 01:22:17;;;;;;;4.65;1.88;;;10.20;99.90;;;;;;5074562;28;20065;-76
2023/05/01 01:24:56;;;;;;;4.95;2.08;;;10.20;99.90;;;;;;5074312;28;20504;-75
2023/05/01 01:28:06;;;;;;;8.55;2.35;;;10.20;99.90;;;;;;5074244;28;20020;-75
2023/05/01 01:30:52;;;;;;;5.75;2.13;;;10.30;99.90;;;;;;5052269;28;20028;-75
2023/05/01 01:33:55;;;;;;;10.00;2.47;;;10.30;99.90;;;;;;5074026;28;20388;-75
2023/05/01 01:36:33;;;;;;;7.50;2.00;;;10.30;99.90;;;;;;5074001;28;20064;-75
2023/05/01 01:39:25;;;;;;;8.48;1.95;;;10.30;99.90;;;;;;5074326;28;20115;-76
2023/05/01 01:41:53;;;;;;;8.93;2.28;;;10.30;99.90;;;;;;5074247;28;20493;-76
2023/05/01 01:44:33;;;;;;;5.78;1.80;;;10.40;99.90;;;;;;5073928;28;20381;-76
2023/05/01 01:47:03;;;;;;;6.03;1.75;;;10.40;99.90;;;;;;5074373;28;20431;-76
2023/05/01 01:49:31;;;;;;;9.63;2.10;;;10.30;99.90;;;;;;5073776;28;20029;-76
2023/05/01 01:52:01;;;;;;;6.13;2.50;;;10.30;99.90;;;;;;5073984;28;20138;-75
2023/05/01 01:54:34;;;;;;;3.90;2.30;;;10.30;99.90;;;;;;5071866;28;20426;-76
2023/05/01 01:57:02;;;;;;;7.93;2.17;;;10.30;99.90;;;;;;5074004;28;20033;-76
2023/05/01 01:59:32;;;;;;;8.45;2.60;;;10.30;99.90;;;;;;5073266;28;20063;-74
2023/05/01 02:02:00;;;;;;;13.98;2.40;;;10.30;99.90;;;;;;5074089;28;20507;-75
2023/05/01 02:04:27;;;;;;;5.95;2.50;;;10.30;99.90;;;;;;5073011;28;20099;-76
2023/05/01 02:06:57;;;;;;;6.93;2.85;;;10.30;99.90;;;;;;5074003;28;20435;-76
2023/05/01 02:09:25;;;;;;;7.57;2.78;;;10.30;99.90;;;;;;5073539;28;20024;-75
2023/05/01 02:11:52;;;;;;;6.10;2.90;;;10.30;99.90;;;;;;5073764;28;20469;-75
2023/05/01 02:14:20;;;;;;;7.35;2.28;;;10.30;99.90;;;;;;5072822;28;20086;-75
2023/05/01 02:16:47;;;;;;;8.35;2.30;;;10.30;99.90;;;;;;5055563;28;20051;-75
2023/05/01 02:19:14;;;;;;;5.57;2.67;;;10.30;99.90;;;;;;5073881;28;20021;-76
2023/05/01 02:21:41;;;;;;;7.57;2.70;;;10.30;99.90;;;;;;5073651;28;20032;-75
2023/05/01 02:24:09;;;;;;;6.50;2.92;;;10.30;99.90;;;;;;5074150;28;20036;-75
2023/05/01 02:26:45;;;;;;;5.68;3.03;;;10.30;99.90;;;;;;5073719;28;20034;-75
2023/05/01 02:29:11;;;;;;;8.82;3.47;;;10.30;99.90;;;;;;5072945;28;20020;-75
2023/05/01 02:31:36;;;;;;;8.73;3.30;;;10.30;99.90;;;;;;5055722;28;20066;-76
2023/05/01 02:34:02;;;;;;;5.35;3.33;;;10.30;99.90;;;;;;5073422;28;20028;-75
2023/05/01 02:36:28;;;;;;;7.65;3.53;;;10.30;99.90;;;;;;5072952;28;20042;-76
2023/05/01 02:38:54;;;;;;;6.30;2.60;;;10.30;99.90;;;;;;5072893;28;20480;-76
2023/05/01 02:41:21;;;;;;;9.88;2.67;;;10.30;99.90;;;;;;5072509;28;20195;-75
2023/05/01 02:43:53;;;;;;;7.47;3.60;;;10.20;99.90;;;;;;5072889;28;20021;-76
2023/05/01 02:46:20;;;;;;;8.82;3.42;;;10.30;99.90;;;;;;5072739;28;20027;-75
2023/05/01 02:48:47;;;;;;;7.75;3.35;;;10.30;99.90;;;;;;5073118;28;20032;-76
2023/05/01 02:51:13;;;;;;;6.72;3.08;;;10.30;99.90;;;;;;5072051;28;20035;-76
2023/05/01 02:53:39;;;;;;;6.05;3.50;;;10.30;99.90;;;;;;5072940;28;20036;-75
2023/05/01 02:56:06;;;;;;;10.77;3.58;;;10.30;99.90;;;;;;5072445;28;20021;-76
2023/05/01 02:58:33;;;;;;;7.93;3.22;;;10.30;99.90;;;;;;5054509;28;20020;-75
2023/05/01 03:00:59;;;;;;;4.93;2.92;;;10.30;99.90;;;;;;5072622;28;20087;-76
2023/05/01 03:03:25;;;;;;;7.70;3.38;;;10.20;99.90;;;;;;5071800;28;20048;-75
2023/05/01 03:05:51;;;;;;;7.80;3.35;;;10.30;99.90;;;;;;5072353;28;20039;-75
2023/05/01 03:08:16;;;;;;;7.95;3.42;;;10.20;99.90;;;;;;5071886;28;20020;-76
2023/05/01 03:10:42;;;;;;;7.63;3.47;;;10.20;99.90;;;;;;5072242;28;20028;-76
2023/05/01 03:13:09;;;;;;;7.38;2.90;;;10.30;99.90;;;;;;5072250;28;20103;-76
2023/05/01 03:15:35;;;;;;;8.65;4.25;;;10.30;99.90;;;;;;5072333;28;20044;-75
2023/05/01 03:18:01;;;;;;;7.90;3.20;;;10.20;99.90;;;;;;5072291;28;20032;-75
2023/05/01 03:20:27;;;;;;;5.63;2.63;;;10.20;99.90;;;;;;5071980;28;20047;-76
2023/05/01 03:22:53;;;;;;;8.32;4.07;;;10.20;99.90;;;;;;5071998;28;20056;-76
2023/05/01 03:25:18;;;;;;;13.85;3.70;;;10.20;99.90;;;;;;5071971;28;20408;-76
2023/05/01 03:27:44;;;;;;;6.82;3.85;;;10.20;99.90;;;;;;5071988;28;20063;-76
2023/05/01 03:30:10;;;;;;;6.50;3.67;;;10.20;99.90;;;;;;5071839;28;20032;-75
2023/05/01 03:32:35;;;;;;;7.72;3.15;;;10.20;99.90;;;;;;5071921;28;20025;-75
2023/05/01 03:35:01;;;;;;;7.72;3.83;;;10.20;99.90;;;;;;5072018;28;20024;-76
2023/05/01 03:37:27;;;;;;;9.88;3.75;;;10.20;99.90;;;;;;5071730;28;20036;-76
2023/05/01 03:39:53;;;;;;;6.70;3.35;;;10.20;99.90;;;;;;5071695;28;20064;-76
2023/05/01 03:42:18;;;;;;;7.55;3.85;;;10.20;99.90;;;;;;5071443;28;20068;-76
2023/05/01 03:44:44;;;;;;;9.27;3.75;;;10.20;99.90;;;;;;5066407;28;20025;-75
2023/05/01 03:47:10;;;;;;;7.15;3.63;;;10.20;99.90;;;;;;5071337;28;20483;-75
2023/05/01 03:49:35;;;;;;;6.07;3.58;;;10.20;99.90;;;;;;5071675;28;20021;-76
2023/05/01 03:52:01;;;;;;;11.63;3.85;;;10.20;99.90;;;;;;5058465;28;20025;-76
2023/05/01 03:54:27;;;;;;;9.82;4.70;;;10.10;99.90;;;;;;5033573;28;20110;-76
2023/05/01 03:56:53;;;;;;;7.60;3.90;;;10.10;99.90;;;;;;5064597;28;20135;-76
2023/05/01 03:59:18;;;;;;;7.93;4.07;;;10.10;99.90;;;;;;5071196;28;20508;-75
2023/05/01 04:01:44;;;;;;;8.23;3.58;;;10.10;99.90;;;;;;5071166;28;20040;-75
2023/05/01 04:04:09;;;;;;;9.30;4.45;;;10.10;99.90;;;;;;5071393;28;20431;-75
2023/05/01 04:06:35;;;;;;;5.68;3.67;;;10.10;99.90;;;;;;5053618;28;20039;-76
2023/05/01 04:09:01;;;;;;;10.70;4.13;;;10.10;99.90;;;;;;5071874;28;20059;-75
2023/05/01 04:11:27;;;;;;;6.97;4.65;;;10.00;99.90;;;;;;5071076;28;20485;-76
2023/05/01 04:13:52;;;;;;;7.85;3.92;;;10.00;99.90;;;;;;5068554;28;20124;-76
2023/05/01 04:16:18;;;;;;;10.32;3.92;;;10.00;99.90;;;;;;5064634;28;20045;-76
2023/05/01 04:18:43;;;;;;;9.52;4.30;;;10.00;99.90;;;;;;5069415;28;20024;-76
2023/05/01 04:21:09;;;;;;;7.93;4.35;;;10.00;99.90;;;;;;5051145;28;20041;-76
2023/05/01 04:23:35;;;;;;;12.93;4.60;;;10.00;99.90;;;;;;5051458;28;20071;-76
2023/05/01 04:26:00;;;;;;;7.10;4.53;;;9.90;99.90;;;;;;5066280;28;20389;-76
2023/05/01 04:28:29;;;;;;;7.97;4.35;;;9.90;99.90;;;;;;5070664;28;20025;-76
2023/05/01 04:30:55;;;;;;;7.70;4.03;;;10.00;99.90;;;;;;5070339;28;20047;-76
2023/05/01 04:33:21;;;;;;;10.35;4.40;;;10.00;99.90;;;;;;5071268;28;20020;-75
2023/05/01 04:35:47;;;;;;;7.97;4.10;;;10.00;99.90;;;;;;5071221;28;20028;-76
2023/05/01 04:38:13;;;;;;;9.30;4.10;;;10.00;99.90;;;;;;5068160;28;20016;-76
2023/05/01 04:40:38;;;;;;;10.57;4.75;;;10.00;99.90;;;;;;5054049;28;20496;-75
2023/05/01 04:43:04;;;;;;;7.15;4.10;;;10.00;99.90;;;;;;5053433;28;20032;-76
2023/05/01 04:45:29;;;;;;;7.80;4.05;;;10.00;99.90;;;;;;5070959;28;20037;-75
2023/05/01 04:47:55;;;;;;;10.20;4.82;;;10.00;99.90;;;;;;5059296;28;20377;-75
2023/05/01 04:50:20;;;;;;;10.80;3.95;;;10.00;99.90;;;;;;5050622;28;20079;-75
2023/05/01 04:52:46;;;;;;;10.73;4.47;;;10.10;99.90;;;;;;5033214;28;20480;-76
2023/05/01 04:55:11;;;;;;;9.18;4.07;;;10.10;99.90;;;;;;5056725;28;20036;-76
2023/05/01 04:57:37;;;;;;;10.90;4.90;;;10.10;99.90;;;;;;5071163;28;20389;-76
2023/05/01 05:00:03;;;;;;;8.07;3.97;;;10.20;99.90;;;;;;5063084;28;20037;-75
2023/05/01 05:02:29;;;;;;;7.68;3.72;;;10.20;99.90;;;;;;5068373;28;20481;-75
2023/05/01 05:04:55;;;;;;;8.40;4.25;;;10.20;99.90;;;;;;5071182;28;20063;-75
2023/05/01 05:07:21;;;;;;;7.70;4.20;;;10.20;99.90;;;;;;5070603;28;20487;-75
2023/05/01 05:09:47;;;;;;;6.45;4.15;;;10.30;99.90;;;;;;5060621;28;20473;-76
2023/05/01 05:12:13;;;;;;;6.70;3.75;;;10.30;99.90;;;;;;5050666;28;20040;-76
2023/05/01 05:14:41;;;;;;;10.63;4.05;;;10.40;99.90;;;;;;5050863;28;20071;-77
2023/05/01 05:17:06;;;;;;;9.80;4.10;;;10.40;99.90;;;;;;5055667;28;20392;-76
2023/05/01 05:19:32;;;;;;;9.63;3.67;;;10.50;99.90;;;;;;5070407;28;20017;-76
2023/05/01 05:21:57;;;;;;;7.00;3.63;;;10.50;99.90;;;;;;5070375;28;20052;-76
2023/05/01 05:24:23;;;;;;;6.82;3.72;;;10.50;99.90;;;;;;5050319;28;20035;-77
2023/05/01 05:26:49;;;;;;;11.20;4.28;;;10.50;99.90;;;;;;5070252;28;20028;-76
2023/05/01 05:29:15;;;;;;;11.60;4.47;;;10.60;99.90;;;;;;5070563;28;20016;-76
2023/05/01 05:31:40;;;;;;;8.43;3.95;;;10.60;99.90;;;;;;5074423;28;20029;-76
2023/05/01 05:34:06;;;;;;;11.60;4.32;;;10.60;99.90;;;;;;5074722;28;20021;-76
2023/05/01 05:36:31;;;;;;;7.18;3.67;;;10.60;99.90;;;;;;5056915;28;20024;-76
2023/05/01 05:38:58;;;;;;;9.93;4.07;;;10.60;99.90;;;;;;5054182;28;20077;-76
2023/05/01 05:41:24;;;;;;;9.52;4.25;;;10.60;99.90;;;;;;5054043;28;20051;-76
2023/05/01 05:43:49;;;;;;;10.27;4.47;;;10.70;99.90;;;;;;5065061;28;20127;-76
2023/05/01 05:46:15;;;;;;;8.35;4.47;;;10.70;99.90;;;;;;5058556;28;20017;-76
2023/05/01 05:48:40;;;;;;;7.38;4.32;;;10.70;99.90;;;;;;5072705;28;20031;-76
2023/05/01 05:51:06;;;;;;;8.32;3.42;;;10.70;99.90;;;;;;5074139;28;20396;-76
2023/05/01 05:53:31;;;;;;;9.15;4.35;;;10.70;99.90;;;;;;5074051;28;20031;-76
2023/05/01 05:55:57;;;;;;;7.50;4.38;;;10.70;99.90;;;;;;5066524;28;20025;-76
2023/05/01 05:58:23;;;;;;;6.13;4.22;;;10.70;99.90;;;;;;5063341;28;20027;-76
2023/05/01 06:00:49;;;;;;;8.20;3.72;;;10.70;99.90;;;;;;5054032;28;20040;-76
2023/05/01 06:03:15;;;;;;;8.70;4.53;;;10.70;99.90;;;;;;5059259;28;20095;-76
2023/05/01 06:05:44;;;;;;;11.05;4.45;;;10.80;99.90;;;;;;5056300;28;20036;-76
2023/05/01 06:08:10;;;;;;;8.95;3.88;;;10.80;99.90;;;;;;5073671;28;20376;-78
2023/05/01 06:10:38;;;;;;;13.18;5.00;;;10.80;99.90;;;;;;5073683;28;20027;-76
2023/05/01 06:13:06;;;;;;;8.98;4.35;;;10.80;99.90;;;;;;5074002;28;20029;-76
2023/05/01 06:15:31;;;;;;;9.68;4.00;;;10.90;99.90;;;;;;5072651;28;20060;-76
2023/05/01 06:17:57;;;;;;;6.70;3.95;;;10.90;99.90;;;;;;5061040;28;20019;-76
2023/05/01 06:20:22;;;;;;;7.75;4.32;;;10.90;99.90;;;;;;5055913;28;20101;-76
2023/05/01 06:22:48;;;;;;;9.85;4.88;;;11.00;99.90;;;;;;5073771;28;20017;-76
2023/05/01 06:25:14;;;;;;;12.80;4.68;;;11.00;99.90;;;;;;5072948;28;20063;-76
2023/05/01 06:27:39;;;;;;;11.07;3.83;;;11.10;99.90;;;;;;5073521;28;20451;-76
2023/05/01 06:30:06;;;;;;;9.50;4.57;;;11.20;99.90;;;;;;5073196;28;20028;-76
2023/05/01 06:32:31;;;;;;;9.45;5.00;;;11.30;99.90;;;;;;5073020;28;20020;-77
2023/05/01 06:34:57;;;;;;;10.57;4.82;;;11.40;99.90;;;;;;5073368;28;20091;-76
2023/05/01 06:37:25;;;;;;;10.18;4.82;;;11.40;99.90;;;;;;5073048;28;20377;-77
2023/05/01 06:39:51;;;;;;;10.63;5.18;;;11.50;99.90;;;;;;5073523;28;20597;-77
2023/05/01 06:42:16;;;;;;;10.93;5.10;;;11.60;99.90;;;;;;5072417;28;20064;-76
2023/05/01 06:44:42;;;;;;;12.13;5.45;;;11.70;99.90;;;;;;5073452;28;20476;-75
2023/05/01 06:47:08;;;;;;;12.07;4.55;;;11.80;99.90;;;;;;5050633;28;20100;-75
2023/05/01 06:49:34;;;;;;;8.85;5.07;;;11.80;99.90;;;;;;5055042;28;20049;-76
2023/05/01 06:52:00;;;;;;;7.93;4.95;;;11.90;99.90;;;;;;5055263;28;20075;-76
2023/05/01 06:54:28;;;;;;;9.15;5.25;;;11.90;99.90;;;;;;5073070;28;20108;-77
2023/05/01 06:56:54;;;;;;;11.05;5.28;;;11.90;99.90;;;;;;5069426;28;20346;-75
2023/05/01 06:59:19;;;;;;;9.52;5.35;;;12.00;99.90;;;;;;5053462;28;20028;-75
2023/05/01 07:01:45;;;;;;;8.90;5.05;;;12.00;99.90;;;;;;5052997;28;20041;-75
2023/05/01 07:04:11;;;;;;;8.75;5.28;;;12.00;99.90;;;;;;5052330;28;20025;-76
2023/05/01 07:06:37;;;;;;;8.18;4.80;;;12.00;99.90;;;;;;5035088;28;20029;-76
2023/05/01 07:09:03;;;;;;;11.05;5.40;;;12.10;99.90;;;;;;5072784;28;20031;-74
2023/05/01 07:11:29;;;;;;;14.20;5.25;;;12.10;99.90;;;;;;5054385;28;20468;-77
2023/05/01 07:13:55;;;;;;;8.18;4.82;;;12.20;99.90;;;;;;5072640;28;20027;-77
2023/05/01 07:16:21;;;;;;;10.45;5.55;;;12.40;99.90;;;;;;5072060;28;20401;-77
2023/05/01 07:18:46;;;;;;;11.93;5.57;;;12.50;99.90;;;;;;5071321;28;20505;-77
2023/05/01 07:21:12;;;;;;;15.18;5.30;;;12.50;99.90;;;;;;5071873;28;20040;-73
2023/05/01 07:23:38;;;;;;;9.15;4.47;;;12.60;99.90;;;;;;5072167;28;20024;-74
2023/05/01 07:26:04;;;;;;;9.98;5.47;;;12.80;99.90;;;;;;5072267;28;20086;-75
2023/05/01 07:28:30;;;;;;;9.43;5.10;;;12.80;99.90;;;;;;5054248;28;20039;-75
2023/05/01 07:30:55;;;;;;;9.10;5.05;;;12.90;99.90;;;;;;5053623;28;20560;-75
2023/05/01 07:33:23;;;;;;;10.95;5.57;;;13.10;99.90;;;;;;5051852;28;20091;-75
2023/05/01 07:35:49;;;;;;;12.00;6.13;;;13.20;99.90;;;;;;5061998;28;20025;-75
2023/05/01 07:38:16;;;;;;;12.15;5.68;;;13.30;99.90;;;;;;5071601;28;20131;-75
2023/05/01 07:40:42;;;;;;;12.30;5.13;;;13.50;99.90;;;;;;5071996;28;20497;-75
2023/05/01 07:43:10;;;;;;;8.20;5.78;;;13.60;99.90;;;;;;5067587;28;20068;-75
2023/05/01 07:45:37;;;;;;;10.05;5.68;;;13.70;99.90;;;;;;5071496;28;20510;-75
2023/05/01 07:48:03;;;;;;;9.88;5.25;;;13.70;99.90;;;;;;5071927;28;20027;-75
2023/05/01 07:50:29;;;;;;;10.43;5.70;;;13.70;99.90;;;;;;5054993;28;20029;-74
2023/05/01 07:52:55;;;;;;;10.98;5.25;;;13.70;99.90;;;;;;5070207;28;20434;-75
2023/05/01 07:55:21;;;;;;;12.85;5.70;;;13.80;99.90;;;;;;5068307;28;20517;-75
2023/05/01 07:57:47;;;;;;;9.82;5.97;;;13.80;99.90;;;;;;5051908;28;20060;-75
2023/05/01 08:00:13;;;;;;;12.65;5.78;;;13.90;99.90;;;;;;5065223;28;20064;-75
2023/05/01 08:02:39;;;;;;;15.18;6.47;;;14.00;99.90;;;;;;5071810;28;20025;-75
2023/05/01 08:05:05;;;;;;;8.90;5.18;;;14.10;99.90;;;;;;5072211;28;20028;-75
2023/05/01 08:07:31;;;;;;;8.82;4.97;;;14.30;99.90;;;;;;5071018;28;20032;-75
2023/05/01 08:09:57;;;;;;;10.63;5.70;;;14.40;99.90;;;;;;5071831;28;20477;-75
2023/05/01 08:12:22;;;;;;;11.05;4.90;;;14.40;99.90;;;;;;5063731;28;20557;-74
2023/05/01 08:14:48;;;;;;;6.88;5.28;;;14.50;99.90;;;;;;5051113;28;20052;-74
2023/05/01 08:17:14;;;;;;;15.68;6.05;;;14.60;99.90;;;;;;5049270;28;20032;-75
2023/05/01 08:19:39;;;;;;;10.77;5.63;;;14.70;99.90;;;;;;5045854;28;20100;-74
2023/05/01 08:22:05;;;;;;;8.77;5.05;;;14.80;99.90;;;;;;5051279;28;20044;-75
2023/05/01 08:24:30;;;;;;;9.88;5.40;;;15.00;99.90;;;;;;5047394;28;20025;-76
2023/05/01 08:26:57;;;;;;;10.32;5.07;;;15.10;99.90;;;;;;5060944;28;20480;-75
2023/05/01 08:29:22;;;;;;;11.30;5.30;;;15.10;99.90;;;;;;5053023;28;20036;-75
2023/05/01 08:31:48;;;;;;;11.88;4.82;;;15.30;99.90;;;;;;5046822;28;20036;-76
2023/05/01 08:34:14;;;;;;;12.32;5.93;;;15.50;99.90;;;;;;5053360;28;20029;-75
2023/05/01 08:36:39;;;;;;;7.68;4.28;;;15.60;99.90;;;;;;5045981;28;20043;-75
2023/05/01 08:39:05;;;;;;;10.40;4.00;;;15.70;99.90;;;;;;5032246;28;20515;-76
2023/05/01 08:41:32;;;;;;;7.80;3.90;;;15.80;99.90;;;;;;5032968;28;20041;-76
2023/05/01 08:44:00;;;;;;;10.60;4.50;;;16.00;99.90;;;;;;5040650;28;20425;-78
2023/05/01 08:46:47;;;;;;;10.27;5.07;;;16.10;99.90;;;;;;5043196;28;20025;-76
2023/05/01 08:49:15;;;;;;;10.45;4.13;;;16.40;99.90;;;;;;5044017;28;20460;-78
2023/05/01 08:51:46;;;;;;;8.77;4.30;;;16.50;99.90;;;;;;5035935;28;20028;-78
2023/05/01 08:54:13;;;;;;;8.50;3.85;;;16.60;99.90;;;;;;5047923;28;20021;-77
2023/05/01 08:56:42;;;;;;;9.07;4.40;;;16.70;99.90;;;;;;5033025;28;20025;-77
2023/05/01 08:59:09;;;;;;;8.95;4.63;;;16.80;99.90;;;;;;5049239;28;20034;-77
2023/05/01 09:01:37;;;;;;;7.47;4.05;;;16.90;99.90;;;;;;5054841;28;20449;-77
2023/05/01 09:04:04;;;;;;;8.55;4.50;;;17.10;99.90;;;;;;5050590;28;20483;-78
2023/05/01 09:06:31;;;;;;;5.53;3.65;;;17.20;99.90;;;;;;5053623;28;20021;-77
2023/05/01 09:08:57;;;;;;;9.38;3.97;;;17.30;99.90;;;;;;5055041;28;20384;-77
2023/05/01 09:11:23;;;;;;;8.00;4.22;;;17.20;99.90;;;;;;5052628;28;20541;-77
2023/05/01 09:13:50;;;;;;;5.18;3.60;;;17.30;99.90;;;;;;5043854;28;20119;-77
2023/05/01 09:16:16;;;;;;;8.90;4.05;;;17.40;99.90;;;;;;5062935;28;20037;-76
2023/05/01 09:18:42;;;;;;;7.43;4.32;;;17.60;99.90;;;;;;5073687;28;20070;-76
2023/05/01 09:21:08;;;;;;;7.22;3.90;;;17.70;99.90;;;;;;5074467;28;20397;-76
2023/05/01 09:23:36;;;;;;;10.80;4.00;;;17.70;99.90;;;;;;5069393;28;20159;-76
2023/05/01 09:26:04;;;;;;;8.43;3.80;;;17.80;99.90;;;;;;5069885;28;20382;-76
2023/05/01 09:28:44;;;;;;;6.40;2.92;;;17.90;99.90;;;;;;5049526;28;20021;-76
2023/05/01 09:31:31;;;;;;;5.07;2.95;;;18.00;99.90;;;;;;5050202;28;20021;-77
2023/05/01 09:33:58;;;;;;;7.15;3.63;;;18.00;99.80;;;;;;5027540;28;20029;-76
2023/05/01 09:36:26;;;;;;;6.53;3.60;;;18.10;99.10;;;;;;5045901;28;20971;-76
2023/05/01 09:38:53;;;;;;;6.10;3.72;;;18.10;98.80;;;;;;5056626;28;20020;-75
2023/05/01 09:41:21;;;;;;;8.40;2.95;;;18.10;97.70;;;;;;5057034;28;20032;-77
2023/05/01 09:43:54;;;;;;;6.82;3.10;;;18.10;97.30;;;;;;5063356;28;20377;-76
2023/05/01 09:46:22;;;;;;;5.88;2.67;;;18.10;97.30;;;;;;5039863;28;20028;-75
2023/05/01 09:48:54;;;;;;;4.70;2.90;;;18.20;96.90;;;;;;5049463;28;20480;-76
2023/05/01 09:51:31;;;;;;;5.70;3.33;;;18.30;96.30;;;;;;5056105;28;20025;-76
2023/05/01 09:54:00;;;;;;;6.13;3.08;;;18.40;96.40;;;;;;5064762;28;20389;-77
2023/05/01 09:56:27;;;;;;;8.90;4.18;;;18.60;96.10;;;;;;5067249;28;20035;-77
2023/05/01 09:58:54;;;;;;;4.80;3.58;;;18.70;95.40;;;;;;5062045;28;20436;-77
2023/05/01 10:01:40;;;;;;;7.60;3.67;;;18.70;95.00;;;;;;5043111;28;20028;-77
2023/05/01 10:04:07;;;;;;;8.13;3.78;;;18.90;94.80;;;;;;5056200;28;20493;-77
2023/05/01 10:06:33;;;;;;;7.47;3.67;;;19.00;94.90;;;;;;5049714;28;20451;-78
2023/05/01 10:08:58;;;;;;;4.55;3.13;;;19.00;94.70;;;;;;5053015;28;20033;-78
2023/05/01 10:11:25;;;;;;;6.20;3.35;;;19.10;94.50;;;;;;5058786;28;20052;-77
2023/05/01 10:14:08;;;;;;;6.25;3.33;;;19.20;93.50;;;;;;5067746;28;20088;-78
2023/05/01 10:16:35;;;;;;;8.20;3.50;;;19.40;93.50;;;;;;5034767;28;20401;-77
2023/05/01 10:19:02;;;;;;;5.75;3.47;;;19.70;93.10;;;;;;5062687;28;20031;-78
2023/05/01 10:21:28;;;;;;;5.38;2.90;;;19.80;92.70;;;;;;5052811;28;20050;-77
2023/05/01 10:23:54;;;;;;;5.80;2.83;;;20.00;92.70;;;;;;5053570;28;20380;-77
2023/05/01 10:26:20;;;;;;;11.52;2.97;;;20.20;92.30;;;;;;5062947;28;20107;-77
2023/05/01 10:28:47;;;;;;;4.90;2.05;;;20.40;92.10;;;;;;5074101;28;20040;-78
2023/05/01 10:31:14;;;;;;;8.00;3.28;;;20.50;91.10;;;;;;5063086;28;20035;-76
2023/05/01 10:33:41;;;;;;;5.03;2.75;;;20.50;90.70;;;;;;5054059;28;20377;-77
2023/05/01 10:36:22;;;;;;;7.07;3.03;;;20.30;90.10;;;;;;5051257;28;20035;-76
2023/05/01 10:38:49;;;;;;;7.95;3.50;;;20.00;90.60;;;;;;5033516;28;20116;-77
2023/05/01 10:41:17;;;;;;;8.80;3.25;;;19.80;90.80;;;;;;5051860;28;20552;-76
2023/05/01 10:43:43;;;;;;;5.68;2.85;;;19.70;91.20;;;;;;5053481;28;20033;-77
2023/05/01 10:46:14;;;;;;;5.88;2.63;;;19.60;90.90;;;;;;5053279;28;20408;-77
2023/05/01 10:48:40;;;;;;;4.88;2.80;;;19.70;90.10;;;;;;5029014;28;20119;-78
2023/05/01 10:51:10;;;;;;;7.88;2.72;;;19.80;90.10;;;;;;5063190;28;20029;-77
2023/05/01 10:56:24;;;;;;;8.53;3.70;;;20.10;89.60;;;;;;4966451;23;20534;-84
2023/05/01 10:59:03;;;;;;;7.50;3.10;;;20.10;89.20;;;;;;4983093;28;20429;-86
2023/05/01 11:01:33;;;;;;;5.05;2.70;;;19.90;88.60;;;;;;4980853;28;20395;-86
2023/05/01 11:04:02;;;;;;;10.57;3.80;;;19.90;89.30;;;;;;4990431;28;20037;-87
2023/05/01 11:06:28;;;;;;;7.07;3.53;;;19.90;90.00;;;;;;4994262;28;20037;-87
2023/05/01 11:08:53;;;;;;;5.97;3.38;;;19.90;90.00;;;;;;4991358;28;20023;-88
2023/05/01 11:11:22;;;;;;;8.75;3.45;;;19.90;90.00;;;;;;4983345;28;20034;-88
2023/05/01 11:14:04;;;;;;;7.90;3.42;;;19.90;90.20;;;;;;4993394;28;20030;-87
2023/05/01 11:16:42;;;;;;;6.00;3.45;;;20.00;90.30;;;;;;5001265;28;20041;-87
2023/05/01 11:19:39;;;;;;;7.20;3.03;;;20.00;89.80;;;;;;4989988;28;20154;-87
2023/05/01 11:22:12;;;;;;;8.82;3.00;;;20.00;87.80;;;;;;5001615;28;20061;-87
2023/05/01 11:24:39;;;;;;;6.85;2.30;;;19.90;90.00;;;;;;4982567;28;20046;-87
2023/05/01 11:27:06;;;;;;;7.10;2.72;;;19.90;89.40;;;;;;5015140;28;20030;-87
2023/05/01 11:29:32;;;;;;;5.88;2.20;;;20.00;88.50;;;;;;4998606;28;20029;-87
2023/05/01 11:31:59;;;;;;;4.72;2.22;;;20.10;86.80;;;;;;4991303;28;20026;-87
2023/05/01 11:34:25;;;;;;;7.32;4.15;;;20.10;86.20;;;;;;4997610;28;20038;-86
2023/05/01 11:36:51;;;;;;;6.80;3.85;;;20.10;85.70;;;;;;4996963;28;20033;-86
2023/05/01 11:39:18;;;;;;;8.63;3.55;;;20.10;85.80;;;;;;5009145;28;20026;-87
2023/05/01 11:41:44;;;;;;;7.53;4.75;;;20.30;86.70;;;;;;4996860;28;20046;-87
2023/05/01 11:44:15;;;;;;;6.35;3.58;;;20.50;86.90;;;;;;4997331;28;20045;-87
2023/05/01 11:46:41;;;;;;;7.33;3.30;;;20.60;87.50;;;;;;5013941;28;20026;-87
2023/05/01 11:49:08;;;;;;;6.20;3.08;;;20.80;87.60;;;;;;4994498;28;20029;-87
2023/05/01 11:51:34;;;;;;;7.20;2.47;;;20.90;86.40;;;;;;4992079;28;20061;-85
2023/05/01 11:54:08;;;;;;;8.52;2.20;;;20.80;84.60;;;;;;4995404;28;20029;-86
2023/05/01 11:56:35;;;;;;;6.63;1.75;;;20.50;82.20;;;;;;4995475;28;20026;-86
2023/05/01 11:59:17;;;;;;;6.88;2.03;;;20.20;83.70;;;;;;4995692;28;20057;-86
2023/05/01 12:01:43;;;;;;;;;;;20.10;85.70;;;;;;4994393;28;20504;-86
2023/05/01 12:04:10;;;;;;;7.60;2.53;;;19.90;85.40;;;;;;5012071;28;19964;-87
2023/05/01 12:06:44;;;;;;;7.82;2.85;;;19.70;86.20;;;;;;4995092;28;20537;-87
2023/05/01 12:09:25;;;;;;;5.32;1.83;;;19.50;87.30;;;;;;5013104;28;20026;-86
2023/05/01 12:11:52;;;;;;;4.55;1.42;;;19.40;88.40;;;;;;5012763;28;20025;-86
2023/05/01 12:14:20;;;;;;;5.35;1.67;;;19.50;84.80;;;;;;5011514;28;20469;-87
2023/05/01 12:16:46;;;;;;;6.50;1.60;;;19.50;84.20;;;;;;5013051;28;20026;-87
2023/05/01 12:19:13;;;;;;;5.75;1.83;;;19.40;83.90;;;;;;4994607;28;20385;-87
2023/05/01 12:21:39;;;;;;;4.65;1.35;;;19.40;85.10;;;;;;4993034;28;20038;-86
2023/05/01 12:24:17;;;;;;;3.83;1.33;;;19.50;84.60;;;;;;5006635;28;20022;-87
2023/05/01 12:26:44;;;;;;;5.05;0.90;;;19.30;83.50;;;;;;4997003;28;20044;-86
2023/05/01 12:29:10;;;;;;;6.00;0.80;;;19.10;84.30;;;;;;5009625;28;20021;-87
2023/05/01 12:31:37;;;;;;;3.40;1.55;;;19.00;82.50;;;;;;4982193;28;20030;-88
2023/05/01 12:34:05;;;;;;;2.78;0.50;;;19.00;81.60;;;;;;4998608;28;20030;-87
2023/05/01 12:36:33;;;;;;;1.48;0.30;;;18.90;81.50;;;;;;4992944;28;20386;-87
2023/05/01 12:39:08;;;;;;;1.85;0.35;;;19.00;80.50;;;;;;4995910;28;20025;-88
2023/05/01 12:41:43;;;;;;;2.55;0.30;;;19.00;78.90;;;;;;5015943;28;20034;-87
2023/05/01 12:44:22;;;;;;;1.33;0.20;;;19.10;76.30;;;;;;5035374;28;20024;-87
2023/05/01 12:47:06;;;;;;;3.17;0.70;;;19.10;76.20;;;;;;5005018;28;20057;-88
2023/05/01 12:49:35;;;;;;;1.42;0.25;;;19.10;74.90;;;;;;5002816;28;20029;-87
2023/05/01 12:52:00;;;;;;;2.55;0.30;;;19.10;73.30;;;;;;5024982;28;20109;-87